Time;durP1;ratioP1;P1;durP2;ratioP2;P2;SDS_P1;SDS_P2;PMS_P1;PMS_P2;Temp;Humidity;BMP_temperature;BMP_pressure;BME280_temperature;BME280_humidity;BME280_pressure;Samples;Min_cycle;Max_cycle;Signal;HPM_P1;HPM_P2
2023/03/12 00:00:35;;;;;;;8.68;3.55;;;4.40;99.90;;;;;;4882090;29;20466;-41
2023/03/12 00:03:01;;;;;;;6.85;3.58;;;4.40;99.90;;;;;;4878522;29;20071;-34
2023/03/12 00:05:26;;;;;;;6.93;4.00;;;4.30;99.90;;;;;;4872646;29;20770;-37
2023/03/12 00:07:52;;;;;;;4.70;3.25;;;4.20;99.90;;;;;;4869375;29;20072;-38
2023/03/12 00:10:19;;;;;;;10.77;3.92;;;4.20;99.90;;;;;;4851676;29;20040;-39
2023/03/12 00:12:45;;;;;;;5.13;3.85;;;4.20;99.90;;;;;;4874488;29;20069;-36
2023/03/12 00:15:11;;;;;;;12.20;4.07;;;4.20;99.90;;;;;;4872912;29;20075;-35
2023/03/12 00:17:36;;;;;;;5.70;3.47;;;4.20;99.90;;;;;;4877461;29;20490;-38
2023/03/12 00:20:05;;;;;;;6.43;3.72;;;4.20;99.90;;;;;;4878304;29;20470;-38
2023/03/12 00:22:31;;;;;;;8.18;3.65;;;4.20;99.90;;;;;;4877587;29;20025;-47
2023/03/12 00:24:57;;;;;;;8.18;3.53;;;4.20;99.90;;;;;;4876752;29;20044;-44
2023/03/12 00:27:23;;;;;;;10.95;3.33;;;4.20;99.90;;;;;;4874588;29;20037;-44
2023/03/12 00:29:49;;;;;;;7.40;3.58;;;4.20;99.90;;;;;;4868065;29;20037;-44
2023/03/12 00:32:15;;;;;;;8.93;2.80;;;4.10;99.90;;;;;;4878863;29;20081;-46
2023/03/12 00:34:41;;;;;;;11.23;3.10;;;4.10;99.90;;;;;;4877930;29;20041;-43
2023/03/12 00:37:07;;;;;;;5.78;3.20;;;4.10;99.90;;;;;;4880958;29;20044;-45
2023/03/12 00:39:33;;;;;;;8.52;3.35;;;4.10;99.90;;;;;;4882013;29;20494;-43
2023/03/12 00:41:59;;;;;;;6.60;3.72;;;4.10;99.90;;;;;;4881782;29;20033;-43
2023/03/12 00:44:25;;;;;;;10.20;3.58;;;4.10;99.90;;;;;;4886500;29;20494;-43
2023/03/12 00:46:51;;;;;;;5.55;3.67;;;4.10;99.90;;;;;;4882885;29;20041;-48
2023/03/12 00:49:17;;;;;;;8.40;3.60;;;4.10;99.90;;;;;;4882361;29;20067;-36
2023/03/12 00:51:43;;;;;;;5.90;3.15;;;4.10;99.90;;;;;;4881851;29;20504;-48
2023/03/12 00:54:09;;;;;;;7.97;4.70;;;4.10;99.90;;;;;;4881258;29;20040;-43
2023/03/12 00:56:34;;;;;;;9.55;3.42;;;4.20;99.90;;;;;;4882010;29;20021;-42
2023/03/12 00:59:00;;;;;;;10.57;3.63;;;4.10;99.90;;;;;;4882364;29;20029;-44
2023/03/12 01:01:26;;;;;;;8.63;3.40;;;4.00;99.90;;;;;;4881352;29;20084;-43
2023/03/12 01:03:52;;;;;;;6.22;3.33;;;4.00;99.90;;;;;;4881374;29;20443;-52
2023/03/12 01:06:18;;;;;;;10.30;4.07;;;4.10;99.90;;;;;;4880846;29;20089;-42
2023/03/12 01:08:44;;;;;;;6.15;3.50;;;4.00;99.90;;;;;;4881539;29;20037;-41
2023/03/12 01:11:14;;;;;;;5.80;3.35;;;4.00;99.90;;;;;;4881232;29;20434;-45
2023/03/12 01:13:40;;;;;;;12.88;3.75;;;4.00;99.90;;;;;;4882198;29;20043;-43
2023/03/12 01:16:06;;;;;;;3.67;2.90;;;4.00;99.90;;;;;;4881020;29;20033;-45
2023/03/12 01:18:31;;;;;;;6.57;3.30;;;4.00;99.90;;;;;;4881471;29;20029;-45
2023/03/12 01:20:58;;;;;;;11.00;3.75;;;4.00;99.90;;;;;;4879678;29;20029;-43
2023/03/12 01:23:24;;;;;;;8.15;3.92;;;4.00;99.90;;;;;;4880122;29;20331;-44
2023/03/12 01:25:51;;;;;;;5.72;3.03;;;4.00;99.90;;;;;;4881989;29;20040;-45
2023/03/12 01:28:17;;;;;;;6.88;3.50;;;4.00;99.90;;;;;;4881997;29;20037;-44
2023/03/12 01:30:43;;;;;;;4.00;3.13;;;4.00;99.90;;;;;;4880676;29;20091;-44
2023/03/12 01:33:09;;;;;;;7.63;3.80;;;4.00;99.90;;;;;;4880360;29;20040;-45
2023/03/12 01:35:38;;;;;;;4.93;2.88;;;4.00;99.90;;;;;;4879256;29;20086;-45
2023/03/12 01:38:05;;;;;;;5.72;2.75;;;4.00;99.90;;;;;;4881103;29;20027;-40
2023/03/12 01:40:33;;;;;;;7.15;3.03;;;4.00;99.90;;;;;;4880649;29;20033;-39
2023/03/12 01:43:24;;;;;;;7.80;2.83;;;4.00;99.90;;;;;;4863999;29;20021;-38
2023/03/12 01:46:14;;;;;;;10.13;3.35;;;4.00;99.90;;;;;;4878699;29;20021;-41
2023/03/12 01:48:48;;;;;;;8.05;3.08;;;4.00;99.90;;;;;;4878060;29;20044;-34
2023/03/12 01:51:16;;;;;;;6.05;3.13;;;3.90;99.90;;;;;;4879670;29;20538;-36
2023/03/12 01:53:46;;;;;;;5.95;2.80;;;3.90;99.90;;;;;;4880656;29;20061;-36
2023/03/12 01:56:14;;;;;;;3.95;2.97;;;4.00;99.90;;;;;;4879528;29;20119;-35
2023/03/12 01:58:44;;;;;;;12.05;3.03;;;4.10;99.90;;;;;;4880892;29;20077;-38
2023/03/12 02:01:09;;;;;;;8.23;3.20;;;4.10;99.90;;;;;;4877648;29;20037;-40
2023/03/12 02:03:36;;;;;;;5.57;2.95;;;4.10;99.90;;;;;;4878182;29;20112;-35
2023/03/12 02:06:10;;;;;;;7.38;2.95;;;4.20;99.90;;;;;;4877998;29;20029;-39
2023/03/12 02:08:40;;;;;;;5.68;2.88;;;4.10;99.90;;;;;;4872728;29;20461;-35
2023/03/12 02:11:06;;;;;;;7.80;2.90;;;4.10;99.90;;;;;;4880110;29;20036;-40
2023/03/12 02:13:31;;;;;;;3.80;3.17;;;4.10;99.90;;;;;;4881025;29;20032;-41
2023/03/12 02:15:57;;;;;;;3.55;2.42;;;4.10;99.90;;;;;;4880889;29;20056;-48
2023/03/12 02:18:23;;;;;;;5.82;2.50;;;4.10;99.90;;;;;;4880401;29;20040;-43
2023/03/12 02:21:07;;;;;;;9.73;3.03;;;4.10;99.90;;;;;;4879370;29;20025;-43
2023/03/12 02:23:36;;;;;;;5.03;2.17;;;4.10;99.90;;;;;;4880234;29;20123;-43
2023/03/12 02:26:04;;;;;;;4.95;2.83;;;4.10;99.90;;;;;;4880866;29;20029;-42
2023/03/12 02:28:32;;;;;;;6.72;2.35;;;4.20;99.90;;;;;;4881054;29;20530;-46
2023/03/12 02:31:02;;;;;;;9.50;3.00;;;4.20;99.90;;;;;;4879296;29;20028;-46
2023/03/12 02:33:28;;;;;;;7.68;2.88;;;4.20;99.90;;;;;;4880759;29;20036;-43
2023/03/12 02:35:54;;;;;;;5.40;2.35;;;4.10;99.90;;;;;;4879881;29;20033;-46
2023/03/12 02:38:41;;;;;;;14.18;3.03;;;4.00;99.90;;;;;;4879842;29;20092;-40
2023/03/12 02:41:14;;;;;;;3.30;2.20;;;4.00;99.90;;;;;;4879796;29;20025;-45
2023/03/12 02:43:43;;;;;;;8.45;3.08;;;4.00;99.90;;;;;;4899530;29;20028;-46
2023/03/12 02:46:09;;;;;;;9.35;2.88;;;4.00;99.90;;;;;;4899080;29;20072;-45
2023/03/12 02:48:35;;;;;;;4.90;2.28;;;4.10;99.90;;;;;;4898953;29;20512;-50
2023/03/12 02:51:02;;;;;;;3.70;2.42;;;4.10;99.90;;;;;;4880765;29;20040;-45
2023/03/12 02:53:28;;;;;;;9.07;2.90;;;4.10;99.90;;;;;;4879678;29;20037;-49
2023/03/12 02:55:54;;;;;;;10.15;3.78;;;4.00;99.90;;;;;;4862556;29;20437;-44
2023/03/12 02:58:20;;;;;;;9.35;2.92;;;4.00;99.90;;;;;;4891311;29;20093;-44
2023/03/12 03:00:46;;;;;;;7.50;2.67;;;4.00;99.90;;;;;;4882236;29;20530;-40
2023/03/12 03:03:12;;;;;;;3.80;2.70;;;4.10;99.90;;;;;;4880128;29;20045;-45
2023/03/12 03:05:37;;;;;;;7.32;2.83;;;4.10;99.90;;;;;;4878927;29;20450;-47
2023/03/12 03:08:04;;;;;;;9.00;2.65;;;4.10;99.90;;;;;;4878743;29;20116;-45
2023/03/12 03:10:30;;;;;;;2.78;1.98;;;4.10;99.90;;;;;;4878998;29;20065;-42
2023/03/12 03:12:56;;;;;;;6.25;2.28;;;4.10;99.90;;;;;;4878627;29;20156;-40
2023/03/12 03:15:22;;;;;;;3.88;2.80;;;4.10;99.90;;;;;;4879958;29;20025;-46
2023/03/12 03:17:48;;;;;;;8.35;2.33;;;4.10;99.90;;;;;;4877089;29;20356;-46
2023/03/12 03:20:14;;;;;;;3.63;2.30;;;4.10;99.90;;;;;;4860830;29;20066;-40
2023/03/12 03:22:40;;;;;;;5.18;2.45;;;4.10;99.90;;;;;;4862888;29;20423;-44
2023/03/12 03:25:07;;;;;;;9.43;2.45;;;4.10;99.90;;;;;;4880030;29;20028;-46
2023/03/12 03:27:32;;;;;;;4.90;2.50;;;4.10;99.90;;;;;;4878830;29;20120;-41
2023/03/12 03:29:58;;;;;;;7.28;3.63;;;4.10;99.90;;;;;;4879212;29;20112;-40
2023/03/12 03:32:24;;;;;;;7.97;2.25;;;4.10;99.90;;;;;;4879249;29;20096;-45
2023/03/12 03:34:49;;;;;;;3.03;2.50;;;4.10;99.90;;;;;;4877795;29;20025;-45
2023/03/12 03:37:15;;;;;;;6.00;2.28;;;4.10;99.90;;;;;;4877751;29;20088;-53
2023/03/12 03:39:40;;;;;;;5.22;2.30;;;4.10;99.90;;;;;;4879601;29;20112;-34
2023/03/12 03:42:06;;;;;;;3.00;2.50;;;4.10;99.90;;;;;;4878346;29;20040;-40
2023/03/12 03:44:32;;;;;;;2.88;2.30;;;4.10;99.90;;;;;;4878481;29;20029;-37
2023/03/12 03:46:58;;;;;;;9.27;2.55;;;4.10;99.90;;;;;;4879318;29;20033;-35
2023/03/12 03:49:24;;;;;;;4.63;2.15;;;4.10;99.90;;;;;;4878641;29;20037;-38
2023/03/12 03:51:52;;;;;;;3.03;2.10;;;4.00;99.90;;;;;;4878929;29;20072;-38
2023/03/12 03:54:18;;;;;;;5.65;2.70;;;4.10;99.90;;;;;;4876304;29;20113;-37
2023/03/12 03:56:44;;;;;;;6.53;1.88;;;4.10;99.90;;;;;;4878434;29;20100;-34
2023/03/12 03:59:10;;;;;;;5.28;2.30;;;4.10;99.90;;;;;;4877737;29;20028;-33
2023/03/12 04:01:36;;;;;;;3.35;2.10;;;4.10;99.90;;;;;;4862142;29;20568;-37
2023/03/12 04:04:02;;;;;;;3.97;2.20;;;4.10;99.90;;;;;;4878424;29;20033;-35
2023/03/12 04:06:28;;;;;;;6.28;2.35;;;4.10;99.90;;;;;;4878276;29;20028;-40
2023/03/12 04:08:55;;;;;;;2.35;1.83;;;4.10;99.90;;;;;;4878546;29;20112;-40
2023/03/12 04:11:22;;;;;;;5.28;2.08;;;4.20;99.90;;;;;;4879019;29;20033;-34
2023/03/12 04:13:48;;;;;;;3.92;2.35;;;4.20;99.90;;;;;;4859939;29;20387;-35
2023/03/12 04:16:15;;;;;;;9.75;1.70;;;4.20;99.90;;;;;;4878135;29;20048;-37
2023/03/12 04:18:41;;;;;;;4.87;1.47;;;4.20;99.90;;;;;;4878115;29;20029;-37
2023/03/12 04:21:08;;;;;;;5.95;1.75;;;4.20;99.90;;;;;;4876829;29;20044;-36
2023/03/12 04:23:35;;;;;;;6.55;2.05;;;4.20;99.90;;;;;;4877220;29;20060;-38
2023/03/12 04:26:01;;;;;;;6.03;2.00;;;4.20;99.90;;;;;;4877666;29;20037;-36
2023/03/12 04:28:27;;;;;;;7.63;1.67;;;4.20;99.90;;;;;;4876312;29;20084;-39
2023/03/12 04:30:58;;;;;;;6.32;1.77;;;4.20;99.90;;;;;;4860916;29;20123;-37
2023/03/12 04:33:29;;;;;;;6.72;1.98;;;4.20;99.90;;;;;;4874848;29;20104;-45
2023/03/12 04:35:54;;;;;;;10.98;1.92;;;4.30;99.90;;;;;;4877354;29;20040;-40
2023/03/12 04:38:22;;;;;;;9.07;1.80;;;4.30;99.90;;;;;;4876462;29;20037;-35
2023/03/12 04:41:03;;;;;;;3.15;2.08;;;4.40;99.90;;;;;;4877554;29;20036;-39
2023/03/12 04:43:30;;;;;;;5.68;1.65;;;4.30;99.90;;;;;;4876603;29;20495;-36
2023/03/12 04:45:56;;;;;;;5.78;2.13;;;4.40;99.90;;;;;;4878484;29;20474;-44
2023/03/12 04:48:22;;;;;;;12.00;2.13;;;4.30;99.90;;;;;;4876097;29;20044;-38
2023/03/12 04:50:48;;;;;;;3.72;2.20;;;4.30;99.90;;;;;;4876048;29;20491;-37
2023/03/12 04:53:14;;;;;;;3.60;1.92;;;4.30;99.90;;;;;;4878177;29;20494;-39
2023/03/12 04:55:40;;;;;;;7.63;1.83;;;4.30;99.90;;;;;;4877771;29;20065;-37
2023/03/12 04:58:05;;;;;;;2.63;2.40;;;4.30;99.90;;;;;;4877153;29;20119;-39
2023/03/12 05:00:31;;;;;;;2.40;2.05;;;4.30;99.90;;;;;;4877051;29;20017;-36
2023/03/12 05:02:56;;;;;;;3.50;1.88;;;4.30;99.90;;;;;;4877049;29;20142;-37
2023/03/12 05:05:22;;;;;;;21.60;3.17;;;4.20;99.90;;;;;;4876296;29;20075;-34
2023/03/12 05:07:48;;;;;;;7.53;2.33;;;4.30;99.90;;;;;;4876442;29;20315;-47
2023/03/12 05:10:14;;;;;;;4.95;1.98;;;4.30;99.90;;;;;;4876900;29;20040;-45
2023/03/12 05:12:39;;;;;;;7.47;2.22;;;4.30;99.90;;;;;;4873084;29;20474;-43
2023/03/12 05:15:06;;;;;;;5.32;2.10;;;4.30;99.90;;;;;;4877661;29;20120;-41
2023/03/12 05:17:31;;;;;;;3.75;2.08;;;4.30;99.90;;;;;;4876418;29;20029;-49
2023/03/12 05:19:57;;;;;;;5.40;1.90;;;4.40;99.90;;;;;;4857716;29;20117;-39
2023/03/12 05:22:23;;;;;;;3.53;1.98;;;4.30;99.90;;;;;;4878380;29;20446;-45
2023/03/12 05:24:48;;;;;;;8.32;2.67;;;4.20;99.90;;;;;;4880625;29;20573;-43
2023/03/12 05:27:14;;;;;;;4.55;2.55;;;4.20;99.90;;;;;;4880072;29;20033;-47
2023/03/12 05:29:40;;;;;;;7.32;2.38;;;4.20;99.90;;;;;;4879794;29;20021;-49
2023/03/12 05:32:06;;;;;;;8.38;2.40;;;4.20;99.90;;;;;;4880433;29;20037;-44
2023/03/12 05:34:32;;;;;;;2.28;2.05;;;4.20;99.90;;;;;;4879652;29;20040;-42
2023/03/12 05:36:58;;;;;;;5.78;2.38;;;4.20;99.90;;;;;;4878945;29;20025;-44
2023/03/12 05:39:25;;;;;;;4.10;2.92;;;4.20;99.90;;;;;;4881697;29;20025;-43
2023/03/12 05:41:55;;;;;;;3.95;2.08;;;4.20;99.90;;;;;;4879336;29;20036;-45
2023/03/12 05:44:21;;;;;;;6.40;2.40;;;4.20;99.90;;;;;;4881879;29;20464;-41
2023/03/12 05:46:47;;;;;;;6.95;2.85;;;4.20;99.90;;;;;;4880482;29;20104;-46
2023/03/12 05:49:13;;;;;;;9.98;2.92;;;4.20;99.90;;;;;;4879787;29;20177;-44
2023/03/12 05:51:38;;;;;;;5.43;2.42;;;4.20;99.90;;;;;;4880181;29;20506;-44
2023/03/12 05:54:04;;;;;;;6.57;2.70;;;4.30;99.90;;;;;;4881294;29;20052;-42
2023/03/12 05:56:31;;;;;;;5.72;2.08;;;4.20;99.90;;;;;;4881281;29;20029;-41
2023/03/12 05:58:56;;;;;;;7.45;3.00;;;4.30;99.90;;;;;;4881226;29;20040;-43
2023/03/12 06:01:25;;;;;;;7.60;2.55;;;4.30;99.90;;;;;;4880162;29;20021;-45
2023/03/12 06:03:51;;;;;;;3.95;2.40;;;4.30;99.90;;;;;;4879823;29;20709;-42
2023/03/12 06:06:17;;;;;;;11.35;2.85;;;4.30;99.90;;;;;;4880622;29;20063;-42
2023/03/12 06:08:44;;;;;;;6.80;2.67;;;4.20;99.90;;;;;;4880989;29;20037;-46
2023/03/12 06:11:10;;;;;;;13.20;3.05;;;4.20;99.90;;;;;;4863763;29;20192;-41
2023/03/12 06:13:36;;;;;;;4.97;2.85;;;4.10;99.90;;;;;;4881059;29;20040;-44
2023/03/12 06:16:07;;;;;;;9.80;2.85;;;4.10;99.90;;;;;;4878655;29;20033;-46
2023/03/12 06:18:34;;;;;;;5.57;2.97;;;4.10;99.90;;;;;;4878552;29;20055;-43
2023/03/12 06:21:21;;;;;;;6.28;2.40;;;4.20;99.90;;;;;;4880848;29;20033;-47
2023/03/12 06:23:47;;;;;;;6.50;2.75;;;4.10;99.90;;;;;;4878049;29;20025;-44
2023/03/12 06:26:13;;;;;;;6.75;3.55;;;4.10;99.90;;;;;;4880819;29;20119;-47
2023/03/12 06:28:40;;;;;;;9.85;3.20;;;4.10;99.90;;;;;;4862963;29;20032;-44
2023/03/12 06:31:06;;;;;;;4.85;3.20;;;4.10;99.90;;;;;;4880895;29;20032;-45
2023/03/12 06:33:33;;;;;;;3.58;2.78;;;4.10;99.90;;;;;;4878190;29;20033;-45
2023/03/12 06:36:01;;;;;;;8.98;2.70;;;4.10;99.90;;;;;;4880575;29;20041;-44
2023/03/12 06:38:27;;;;;;;7.68;2.92;;;4.00;99.90;;;;;;4879007;29;20486;-45
2023/03/12 06:40:58;;;;;;;8.65;3.53;;;4.00;99.90;;;;;;4880783;29;20089;-49
2023/03/12 06:43:25;;;;;;;8.13;3.35;;;4.00;99.90;;;;;;4871797;29;20047;-42
2023/03/12 06:45:52;;;;;;;6.40;3.63;;;4.00;99.90;;;;;;4878177;29;20482;-36
2023/03/12 06:48:18;;;;;;;9.07;3.53;;;4.00;99.90;;;;;;4879855;29;20047;-37
2023/03/12 06:50:44;;;;;;;8.23;3.53;;;4.00;99.90;;;;;;4878610;29;20037;-38
2023/03/12 06:53:09;;;;;;;13.98;3.80;;;4.00;99.90;;;;;;4879005;29;20035;-36
2023/03/12 06:55:35;;;;;;;6.63;3.33;;;3.90;99.90;;;;;;4877026;29;20498;-37
2023/03/12 06:58:02;;;;;;;10.43;3.60;;;3.90;99.90;;;;;;4879313;29;20492;-39
2023/03/12 07:00:29;;;;;;;5.07;3.30;;;3.90;99.90;;;;;;4878417;29;20065;-37
2023/03/12 07:02:55;;;;;;;6.75;3.75;;;3.90;99.90;;;;;;4879016;29;20060;-38
2023/03/12 07:05:22;;;;;;;8.45;4.43;;;4.00;99.90;;;;;;4879730;29;20512;-41
2023/03/12 07:07:47;;;;;;;7.53;3.53;;;4.10;99.90;;;;;;4879450;29;20028;-36
2023/03/12 07:10:13;;;;;;;6.22;4.03;;;4.10;99.90;;;;;;4879972;29;20406;-39
2023/03/12 07:12:39;;;;;;;5.30;3.53;;;4.10;99.90;;;;;;4878359;29;20446;-37
2023/03/12 07:15:05;;;;;;;7.75;4.25;;;4.10;99.90;;;;;;4879107;29;20431;-39
2023/03/12 07:17:31;;;;;;;9.00;3.65;;;4.00;99.90;;;;;;4879304;29;20060;-40
2023/03/12 07:19:57;;;;;;;12.80;4.60;;;4.00;99.90;;;;;;4879103;29;20080;-35
2023/03/12 07:22:22;;;;;;;9.30;3.83;;;4.00;99.90;;;;;;4879082;29;20052;-40
2023/03/12 07:24:50;;;;;;;8.43;3.65;;;4.10;99.90;;;;;;4862047;29;20116;-38
2023/03/12 07:27:16;;;;;;;7.30;4.67;;;4.20;99.90;;;;;;4879573;29;20140;-38
2023/03/12 07:29:41;;;;;;;11.70;4.88;;;4.20;99.90;;;;;;4879358;29;20507;-38
2023/03/12 07:32:07;;;;;;;12.85;5.32;;;4.20;99.90;;;;;;4878861;29;20033;-39
2023/03/12 07:34:33;;;;;;;7.07;4.53;;;4.20;99.90;;;;;;4879126;29;20118;-47
2023/03/12 07:36:59;;;;;;;15.00;5.10;;;4.20;99.90;;;;;;4879965;29;20033;-52
2023/03/12 07:39:25;;;;;;;19.83;5.75;;;4.30;99.90;;;;;;4876596;29;20569;-48
2023/03/12 07:41:50;;;;;;;10.80;5.22;;;4.30;99.90;;;;;;4879856;29;20032;-44
2023/03/12 07:44:16;;;;;;;10.38;5.88;;;4.30;99.90;;;;;;4889587;29;20020;-44
2023/03/12 07:46:42;;;;;;;17.55;5.10;;;4.40;99.90;;;;;;4897972;29;20036;-42
2023/03/12 07:49:08;;;;;;;7.93;5.43;;;4.40;99.90;;;;;;4886616;29;20119;-40
2023/03/12 07:51:33;;;;;;;11.77;5.18;;;4.40;99.90;;;;;;4878787;29;20516;-38
2023/03/12 07:53:59;;;;;;;13.45;4.93;;;4.40;99.90;;;;;;4878745;29;20025;-39
2023/03/12 07:56:25;;;;;;;10.45;6.30;;;4.50;99.90;;;;;;4878389;29;20490;-41
2023/03/12 07:58:50;;;;;;;6.82;4.70;;;4.50;99.90;;;;;;4879289;29;20080;-40
2023/03/12 08:01:16;;;;;;;18.13;5.93;;;4.50;99.90;;;;;;4876853;29;20029;-41
2023/03/12 08:03:42;;;;;;;14.38;7.25;;;4.50;99.90;;;;;;4877026;29;20125;-38
2023/03/12 08:06:08;;;;;;;11.70;5.75;;;4.60;99.90;;;;;;4876372;29;20024;-39
2023/03/12 08:08:35;;;;;;;10.10;5.53;;;4.60;99.90;;;;;;4878029;29;20063;-50
2023/03/12 08:11:03;;;;;;;10.00;5.60;;;4.70;99.90;;;;;;4878740;29;20402;-48
2023/03/12 08:13:29;;;;;;;9.90;6.28;;;4.80;99.90;;;;;;4876690;29;20033;-48
2023/03/12 08:15:55;;;;;;;8.55;5.32;;;4.90;99.90;;;;;;4876933;29;20498;-50
2023/03/12 08:18:21;;;;;;;12.80;5.78;;;4.90;99.90;;;;;;4878295;29;20084;-38
2023/03/12 08:20:52;;;;;;;9.95;5.50;;;4.90;99.90;;;;;;4877355;29;20036;-39
2023/03/12 08:23:18;;;;;;;12.88;5.53;;;5.00;99.90;;;;;;4875311;29;20025;-38
2023/03/12 08:25:46;;;;;;;16.75;5.75;;;4.90;99.90;;;;;;4878740;29;20037;-40
2023/03/12 08:28:12;;;;;;;;;;;5.00;99.90;;;;;;4874052;29;20513;-39
2023/03/12 08:30:37;;;;;;;12.70;5.60;;;5.00;99.90;;;;;;4879269;29;19912;-38
2023/03/12 08:33:03;;;;;;;9.65;5.13;;;5.10;99.90;;;;;;4874435;29;20033;-37
2023/03/12 08:35:29;;;;;;;9.85;5.32;;;5.00;99.90;;;;;;4861114;29;20044;-39
2023/03/12 08:37:55;;;;;;;17.02;6.00;;;5.10;99.90;;;;;;4878787;29;20518;-40
2023/03/12 08:40:22;;;;;;;8.52;5.45;;;5.10;99.90;;;;;;4876844;29;20479;-40
2023/03/12 08:42:48;;;;;;;12.25;7.18;;;5.20;99.90;;;;;;4876988;29;20029;-40
2023/03/12 08:45:14;;;;;;;12.05;7.00;;;5.30;99.90;;;;;;4875532;29;20450;-39
2023/03/12 08:47:41;;;;;;;13.13;6.57;;;5.30;99.90;;;;;;4878478;29;20137;-37
2023/03/12 08:50:07;;;;;;;13.20;7.70;;;5.40;99.90;;;;;;4880175;29;20037;-39
2023/03/12 08:52:33;;;;;;;13.73;7.47;;;5.50;99.90;;;;;;4878127;29;20041;-40
2023/03/12 08:54:58;;;;;;;11.00;6.43;;;5.60;99.90;;;;;;4876634;29;20040;-35
2023/03/12 08:57:24;;;;;;;14.55;7.70;;;5.80;99.90;;;;;;4876380;29;20028;-40
2023/03/12 08:59:50;;;;;;;15.93;6.55;;;5.90;99.90;;;;;;4881116;29;20622;-38
2023/03/12 09:02:15;;;;;;;16.80;8.65;;;6.00;99.90;;;;;;4880591;29;20414;-37
2023/03/12 09:04:41;;;;;;;16.25;8.38;;;6.10;99.90;;;;;;4897530;29;20088;-35
2023/03/12 09:07:08;;;;;;;13.70;7.05;;;6.20;99.90;;;;;;4884776;29;20108;-36
2023/03/12 09:09:34;;;;;;;20.33;8.48;;;6.30;99.90;;;;;;4870100;29;20546;-36
2023/03/12 09:11:59;;;;;;;17.10;8.77;;;6.40;99.90;;;;;;4882120;29;20117;-43
2023/03/12 09:14:25;;;;;;;23.17;9.27;;;6.40;99.90;;;;;;4881892;29;20100;-38
2023/03/12 09:16:51;;;;;;;16.83;8.68;;;6.50;99.90;;;;;;4879216;29;20025;-38
2023/03/12 09:19:16;;;;;;;18.27;9.57;;;6.50;99.90;;;;;;4880471;29;20029;-45
2023/03/12 09:21:42;;;;;;;20.63;9.90;;;6.50;99.90;;;;;;4879675;29;20514;-44
2023/03/12 09:24:10;;;;;;;20.48;9.65;;;6.60;99.90;;;;;;4878541;29;20512;-47
2023/03/12 09:26:35;;;;;;;23.15;9.80;;;6.70;99.90;;;;;;4880881;29;20028;-47
2023/03/12 09:29:01;;;;;;;22.45;9.82;;;6.80;99.90;;;;;;4863699;29;20482;-44
2023/03/12 09:31:27;;;;;;;19.90;8.88;;;6.90;99.90;;;;;;4878918;29;20060;-44
2023/03/12 09:33:53;;;;;;;24.88;10.25;;;7.00;99.90;;;;;;4880132;29;20133;-45
2023/03/12 09:36:18;;;;;;;22.70;10.00;;;7.10;99.90;;;;;;4880576;29;20119;-43
2023/03/12 09:38:44;;;;;;;23.80;10.02;;;7.20;99.90;;;;;;4881021;29;20521;-43
2023/03/12 09:41:25;;;;;;;20.67;10.63;;;7.30;99.90;;;;;;4881862;29;20025;-47
2023/03/12 09:44:31;;;;;;;18.80;10.23;;;7.30;99.90;;;;;;4871130;29;20474;-43
2023/03/12 09:47:02;;;;;;;20.42;10.52;;;7.50;99.90;;;;;;4876133;29;20076;-44
2023/03/12 09:49:39;;;;;;;26.20;11.35;;;7.60;99.90;;;;;;4877535;29;20021;-45
2023/03/12 09:52:25;;;;;;;23.23;10.95;;;7.70;99.90;;;;;;4871164;29;20033;-41
2023/03/12 09:55:30;;;;;;;29.08;11.05;;;7.90;99.90;;;;;;4866706;29;20100;-44
2023/03/12 09:57:57;;;;;;;22.80;11.48;;;8.10;99.90;;;;;;4805137;29;20030;-47
2023/03/12 10:00:29;;;;;;;16.10;7.10;;;8.20;99.90;;;;;;4867433;29;20124;-40
2023/03/12 10:03:20;;;;;;;19.13;10.48;;;8.20;99.90;;;;;;4878362;29;20136;-42
2023/03/12 10:06:13;;;;;;;26.23;10.98;;;8.30;99.90;;;;;;4853151;29;20033;-44
2023/03/12 10:09:00;;;;;;;20.48;9.90;;;8.30;99.90;;;;;;4880454;29;20487;-45
2023/03/12 10:11:35;;;;;;;21.98;10.65;;;8.30;99.90;;;;;;4880711;29;20486;-42
2023/03/12 10:14:34;;;;;;;23.00;10.80;;;8.30;99.90;;;;;;4879268;29;20045;-41
2023/03/12 10:17:20;;;;;;;26.75;11.43;;;8.50;99.90;;;;;;4881071;29;20142;-44
2023/03/12 10:20:15;;;;;;;23.20;10.60;;;8.60;99.90;;;;;;4880373;29;20104;-43
2023/03/12 10:22:50;;;;;;;20.33;9.60;;;8.60;99.90;;;;;;4876816;29;20115;-41
2023/03/12 10:25:26;;;;;;;22.10;9.77;;;8.70;99.90;;;;;;4880365;29;20044;-36
2023/03/12 10:27:56;;;;;;;19.33;9.85;;;8.80;99.90;;;;;;4880183;29;20033;-37
2023/03/12 10:30:29;;;;;;;23.13;11.07;;;8.90;99.90;;;;;;4858978;29;21222;-37
2023/03/12 10:33:08;;;;;;;28.63;10.77;;;9.10;99.90;;;;;;4876079;29;20033;-36
2023/03/12 10:35:33;;;;;;;18.83;9.05;;;9.20;99.90;;;;;;4878217;29;20115;-35
2023/03/12 10:38:04;;;;;;;20.35;9.95;;;9.30;99.90;;;;;;4876825;29;20558;-35
2023/03/12 10:40:33;;;;;;;20.08;8.68;;;9.40;99.90;;;;;;4878823;29;20028;-35
2023/03/12 10:43:00;;;;;;;21.65;9.98;;;9.40;99.90;;;;;;4879546;29;20081;-35
2023/03/12 10:45:36;;;;;;;16.03;8.80;;;9.50;99.90;;;;;;4879561;29;20033;-33
2023/03/12 10:48:07;;;;;;;20.48;8.20;;;9.50;99.90;;;;;;4880415;29;20060;-37
2023/03/12 10:50:35;;;;;;;14.00;7.97;;;9.50;99.90;;;;;;4879405;29;20093;-36
2023/03/12 10:53:21;;;;;;;;;;;9.50;99.90;;;;;;4862988;29;20037;-38
2023/03/12 10:56:10;;;;;;;22.67;8.07;;;9.50;99.90;;;;;;4869776;29;20265;-35
2023/03/12 10:58:39;;;;;;;26.23;8.85;;;9.50;99.90;;;;;;4876830;29;20029;-36
2023/03/12 11:01:17;;;;;;;25.95;7.78;;;9.60;99.90;;;;;;4879505;29;20025;-35
2023/03/12 11:03:44;;;;;;;14.20;6.55;;;9.60;99.90;;;;;;4877682;29;20053;-34
2023/03/12 11:06:26;;;;;;;15.80;6.60;;;9.60;99.90;;;;;;4875958;29;20021;-41
2023/03/12 11:09:15;;;;;;;25.17;6.82;;;9.70;99.90;;;;;;4877679;29;20107;-43
2023/03/12 11:11:41;;;;;;;28.90;6.07;;;9.80;99.90;;;;;;4879888;29;20032;-44
2023/03/12 11:14:22;;;;;;;36.78;6.68;;;9.80;99.90;;;;;;4878364;29;20032;-44
2023/03/12 11:16:49;;;;;;;25.15;6.65;;;9.90;99.90;;;;;;4874130;29;20135;-39
2023/03/12 11:19:36;;;;;;;27.20;6.55;;;9.90;99.90;;;;;;4878747;29;20482;-46
2023/03/12 11:22:07;;;;;;;17.10;4.97;;;9.80;99.90;;;;;;4872426;29;20033;-42
2023/03/12 11:24:34;;;;;;;29.45;5.72;;;9.90;99.90;;;;;;4868707;29;20057;-47
2023/03/12 11:27:00;;;;;;;26.45;5.18;;;9.90;99.90;;;;;;4875307;29;20114;-42
2023/03/12 11:29:38;;;;;;;25.50;4.65;;;9.90;99.90;;;;;;4873860;29;20110;-44
2023/03/12 11:32:28;;;;;;;25.90;5.03;;;9.90;99.90;;;;;;4878322;29;20111;-43
2023/03/12 11:34:54;;;;;;;18.35;4.30;;;9.90;99.90;;;;;;4879742;29;20068;-45
2023/03/12 11:37:45;;;;;;;24.42;4.18;;;10.00;99.90;;;;;;4879490;29;20029;-42
2023/03/12 11:40:31;;;;;;;32.25;4.97;;;9.90;99.90;;;;;;4879522;29;20066;-47
2023/03/12 11:43:29;;;;;;;32.05;4.97;;;10.00;99.90;;;;;;4879408;29;20088;-52
2023/03/12 11:46:20;;;;;;;27.08;4.20;;;10.10;99.90;;;;;;4879456;29;20025;-41
2023/03/12 11:49:02;;;;;;;20.38;3.17;;;10.20;99.90;;;;;;4879149;29;20028;-42
2023/03/12 11:52:03;;;;;;;31.73;4.22;;;10.30;99.90;;;;;;4879457;29;20424;-44
2023/03/12 11:55:01;;;;;;;23.10;3.72;;;10.20;99.90;;;;;;4803848;29;20035;-43
2023/03/12 11:57:42;;;;;;;;;;;10.30;99.90;;;;;;4879737;29;20108;-44
2023/03/12 12:00:16;;;;;;;23.95;3.65;;;10.30;99.90;;;;;;4879199;29;19912;-44
2023/03/12 12:02:56;;;;;;;32.70;3.90;;;10.30;99.90;;;;;;4879199;29;20086;-42
2023/03/12 12:05:25;;;;;;;18.77;3.30;;;10.50;99.90;;;;;;4879328;29;20044;-44
2023/03/12 12:08:48;;;;;;;24.60;4.22;;;10.50;99.90;;;;;;4879297;29;20367;-43
2023/03/12 12:11:18;;;;;;;19.80;4.82;;;10.70;99.90;;;;;;4803835;29;20046;-44
2023/03/12 12:14:16;;;;;;;28.05;4.13;;;10.90;99.90;;;;;;4803814;29;20038;-44
2023/03/12 12:16:53;;;;;;;20.20;4.45;;;10.90;99.90;;;;;;4856194;29;20061;-44
2023/03/12 12:19:27;;;;;;;22.80;4.00;;;11.00;99.90;;;;;;4879131;29;20089;-46
2023/03/12 12:22:28;;;;;;;21.98;4.45;;;10.90;99.90;;;;;;4879131;29;20037;-42
2023/03/12 12:25:18;;;;;;;32.22;5.35;;;11.00;99.90;;;;;;4879124;29;20060;-44
2023/03/12 12:28:00;;;;;;;30.02;3.70;;;11.10;99.90;;;;;;4879139;29;20036;-40
2023/03/12 12:31:02;;;;;;;28.77;3.78;;;11.20;99.90;;;;;;4879076;29;20025;-45
2023/03/12 12:33:42;;;;;;;31.50;4.88;;;11.30;99.90;;;;;;4882492;29;20029;-43
2023/03/12 12:36:09;;;;;;;24.23;3.50;;;11.40;99.90;;;;;;4882835;29;20040;-41
2023/03/12 12:38:52;;;;;;;28.63;4.90;;;11.40;99.90;;;;;;4882799;29;20085;-42
2023/03/12 12:41:23;;;;;;;26.80;3.30;;;11.40;99.90;;;;;;4882756;29;20021;-44
2023/03/12 12:43:54;;;;;;;30.70;3.65;;;11.50;99.90;;;;;;4882733;29;20036;-43
2023/03/12 12:46:25;;;;;;;32.63;3.63;;;11.60;99.90;;;;;;4882756;29;20498;-42
2023/03/12 12:48:54;;;;;;;28.02;4.72;;;11.40;99.90;;;;;;4882594;29;20594;-44
2023/03/12 12:51:25;;;;;;;29.52;4.07;;;11.50;99.90;;;;;;4882665;29;20788;-49
2023/03/12 12:54:15;;;;;;;20.98;4.22;;;11.60;99.90;;;;;;4882304;29;20025;-43
2023/03/12 12:56:47;;;;;;;24.50;3.97;;;11.60;99.90;;;;;;4882519;29;20029;-45
2023/03/12 12:59:30;;;;;;;21.30;3.55;;;11.50;99.90;;;;;;4882744;29;20617;-42
2023/03/12 13:01:57;;;;;;;26.30;5.30;;;11.60;99.90;;;;;;4882571;29;21112;-43
2023/03/12 13:04:30;;;;;;;17.33;3.28;;;11.80;99.90;;;;;;4882411;29;20025;-42